Terminal Aerodrome Forecast
Issued by NWS

Home | Current Version | Previous Version | Text Only | Print | Product List | Glossary On
Versions: 1 2 3 4 5 6 7 8 9 10 11 12 13 14 15 16
000
FTUS45 KBOU 182058 AAA
TAFAPA
TAF AMD
KAPA 182058Z 1821/1918 VRB04KT P6SM BKN220
     FM182200 12007KT P6SM FEW220
     FM190300 17011KT P6SM FEW220
     FM191400 21008KT P6SM FEW120 BKN220=

USA.gov is the U.S. government's official web portal to all federal, state and local government web resources and services.